sensor_id;sensor_type;location;lat;lon;timestamp;P1;durP1;ratioP1;P2;durP2;ratioP2
24443;SDS011;13346;50.984;5.822;2024-03-22T00:01:04;15.43;;;10.67;;
24443;SDS011;13346;50.984;5.822;2024-03-22T00:03:32;18.03;;;14.00;;
24443;SDS011;13346;50.984;5.822;2024-03-22T00:05:59;21.63;;;13.97;;
24443;SDS011;13346;50.984;5.822;2024-03-22T00:08:25;17.97;;;12.77;;
24443;SDS011;13346;50.984;5.822;2024-03-22T00:10:52;20.63;;;14.30;;
24443;SDS011;13346;50.984;5.822;2024-03-22T00:13:18;17.47;;;12.37;;
24443;SDS011;13346;50.984;5.822;2024-03-22T00:15:45;23.97;;;14.87;;
24443;SDS011;13346;50.984;5.822;2024-03-22T00:18:11;16.83;;;11.73;;
24443;SDS011;13346;50.984;5.822;2024-03-22T00:20:40;19.73;;;14.33;;
24443;SDS011;13346;50.984;5.822;2024-03-22T00:23:06;19.90;;;11.60;;
24443;SDS011;13346;50.984;5.822;2024-03-22T00:25:33;18.43;;;13.60;;
24443;SDS011;13346;50.984;5.822;2024-03-22T00:27:59;17.97;;;13.30;;
24443;SDS011;13346;50.984;5.822;2024-03-22T00:30:26;17.07;;;13.17;;
24443;SDS011;13346;50.984;5.822;2024-03-22T00:32:53;14.57;;;10.20;;
24443;SDS011;13346;50.984;5.822;2024-03-22T00:35:20;18.03;;;13.13;;
24443;SDS011;13346;50.984;5.822;2024-03-22T00:37:48;20.57;;;14.23;;
24443;SDS011;13346;50.984;5.822;2024-03-22T00:40:15;18.63;;;13.10;;
24443;SDS011;13346;50.984;5.822;2024-03-22T00:42:41;20.03;;;14.20;;
24443;SDS011;13346;50.984;5.822;2024-03-22T00:45:08;19.37;;;15.50;;
24443;SDS011;13346;50.984;5.822;2024-03-22T00:47:34;15.17;;;12.53;;
24443;SDS011;13346;50.984;5.822;2024-03-22T00:50:01;21.40;;;14.73;;
24443;SDS011;13346;50.984;5.822;2024-03-22T00:52:28;20.37;;;14.20;;
24443;SDS011;13346;50.984;5.822;2024-03-22T00:54:56;20.57;;;13.23;;
24443;SDS011;13346;50.984;5.822;2024-03-22T00:57:22;20.80;;;14.13;;
24443;SDS011;13346;50.984;5.822;2024-03-22T00:59:50;22.43;;;14.07;;
24443;SDS011;13346;50.984;5.822;2024-03-22T01:02:16;16.33;;;11.80;;
24443;SDS011;13346;50.984;5.822;2024-03-22T01:04:43;25.23;;;13.93;;
24443;SDS011;13346;50.984;5.822;2024-03-22T01:07:09;21.17;;;14.17;;
24443;SDS011;13346;50.984;5.822;2024-03-22T01:09:36;14.50;;;10.10;;
24443;SDS011;13346;50.984;5.822;2024-03-22T01:12:04;20.60;;;12.97;;
24443;SDS011;13346;50.984;5.822;2024-03-22T01:14:32;20.80;;;14.30;;
24443;SDS011;13346;50.984;5.822;2024-03-22T01:16:58;16.17;;;11.67;;
24443;SDS011;13346;50.984;5.822;2024-03-22T01:19:25;19.50;;;14.57;;
24443;SDS011;13346;50.984;5.822;2024-03-22T01:21:51;16.70;;;11.77;;
24443;SDS011;13346;50.984;5.822;2024-03-22T01:24:18;20.07;;;13.40;;
24443;SDS011;13346;50.984;5.822;2024-03-22T01:26:45;15.37;;;13.20;;
24443;SDS011;13346;50.984;5.822;2024-03-22T01:29:14;15.63;;;11.80;;
24443;SDS011;13346;50.984;5.822;2024-03-22T01:31:40;17.43;;;12.33;;
24443;SDS011;13346;50.984;5.822;2024-03-22T01:34:07;16.13;;;13.43;;
24443;SDS011;13346;50.984;5.822;2024-03-22T01:36:33;21.63;;;14.20;;
24443;SDS011;13346;50.984;5.822;2024-03-22T01:39:01;11.17;;;9.93;;
24443;SDS011;13346;50.984;5.822;2024-03-22T01:41:27;19.60;;;13.67;;
24443;SDS011;13346;50.984;5.822;2024-03-22T01:43:54;19.17;;;12.77;;
24443;SDS011;13346;50.984;5.822;2024-03-22T01:46:22;18.93;;;14.43;;
24443;SDS011;13346;50.984;5.822;2024-03-22T01:48:49;16.40;;;12.97;;
24443;SDS011;13346;50.984;5.822;2024-03-22T01:51:15;20.57;;;14.37;;
24443;SDS011;13346;50.984;5.822;2024-03-22T01:53:43;15.97;;;11.73;;
24443;SDS011;13346;50.984;5.822;2024-03-22T01:56:09;17.43;;;13.67;;
24443;SDS011;13346;50.984;5.822;2024-03-22T01:58:37;20.70;;;14.40;;
24443;SDS011;13346;50.984;5.822;2024-03-22T02:01:03;18.50;;;13.83;;
24443;SDS011;13346;50.984;5.822;2024-03-22T02:03:32;20.20;;;11.53;;
24443;SDS011;13346;50.984;5.822;2024-03-22T02:05:58;18.37;;;12.73;;
24443;SDS011;13346;50.984;5.822;2024-03-22T02:08:25;18.90;;;14.00;;
24443;SDS011;13346;50.984;5.822;2024-03-22T02:10:51;18.17;;;14.57;;
24443;SDS011;13346;50.984;5.822;2024-03-22T02:13:19;19.83;;;14.27;;
24443;SDS011;13346;50.984;5.822;2024-03-22T02:15:45;17.90;;;13.47;;
24443;SDS011;13346;50.984;5.822;2024-03-22T02:18:12;20.27;;;14.37;;
24443;SDS011;13346;50.984;5.822;2024-03-22T02:20:39;18.43;;;13.93;;
24443;SDS011;13346;50.984;5.822;2024-03-22T02:23:07;17.80;;;13.47;;
24443;SDS011;13346;50.984;5.822;2024-03-22T02:25:34;18.73;;;12.43;;
24443;SDS011;13346;50.984;5.822;2024-03-22T02:28:01;18.47;;;13.73;;
24443;SDS011;13346;50.984;5.822;2024-03-22T02:30:27;21.53;;;15.43;;
24443;SDS011;13346;50.984;5.822;2024-03-22T02:32:55;18.93;;;13.60;;
24443;SDS011;13346;50.984;5.822;2024-03-22T02:35:21;17.40;;;14.00;;
24443;SDS011;13346;50.984;5.822;2024-03-22T02:37:48;20.97;;;14.33;;
24443;SDS011;13346;50.984;5.822;2024-03-22T02:40:14;13.40;;;10.10;;
24443;SDS011;13346;50.984;5.822;2024-03-22T02:42:43;21.40;;;14.33;;
24443;SDS011;13346;50.984;5.822;2024-03-22T02:45:09;20.80;;;15.43;;
24443;SDS011;13346;50.984;5.822;2024-03-22T02:47:36;19.70;;;14.37;;
24443;SDS011;13346;50.984;5.822;2024-03-22T02:50:02;19.53;;;15.20;;
24443;SDS011;13346;50.984;5.822;2024-03-22T02:52:30;21.20;;;15.60;;
24443;SDS011;13346;50.984;5.822;2024-03-22T02:54:56;15.13;;;13.33;;
24443;SDS011;13346;50.984;5.822;2024-03-22T02:57:23;18.27;;;14.27;;
24443;SDS011;13346;50.984;5.822;2024-03-22T02:59:51;18.80;;;12.07;;
24443;SDS011;13346;50.984;5.822;2024-03-22T03:02:18;19.60;;;14.17;;
24443;SDS011;13346;50.984;5.822;2024-03-22T03:04:44;16.53;;;12.87;;
24443;SDS011;13346;50.984;5.822;2024-03-22T03:07:11;14.83;;;13.13;;
24443;SDS011;13346;50.984;5.822;2024-03-22T03:09:37;19.07;;;15.07;;
24443;SDS011;13346;50.984;5.822;2024-03-22T03:12:05;18.50;;;15.03;;
24443;SDS011;13346;50.984;5.822;2024-03-22T03:14:31;21.03;;;14.60;;
24443;SDS011;13346;50.984;5.822;2024-03-22T03:17:00;17.80;;;13.47;;
24443;SDS011;13346;50.984;5.822;2024-03-22T03:19:26;14.47;;;11.13;;
24443;SDS011;13346;50.984;5.822;2024-03-22T03:21:53;15.27;;;12.97;;
24443;SDS011;13346;50.984;5.822;2024-03-22T03:24:19;18.73;;;13.07;;
24443;SDS011;13346;50.984;5.822;2024-03-22T03:26:46;16.60;;;13.23;;
24443;SDS011;13346;50.984;5.822;2024-03-22T03:29:12;19.33;;;14.57;;
24443;SDS011;13346;50.984;5.822;2024-03-22T03:31:40;17.37;;;13.97;;
24443;SDS011;13346;50.984;5.822;2024-03-22T03:34:07;21.10;;;14.90;;
24443;SDS011;13346;50.984;5.822;2024-03-22T03:36:34;20.27;;;13.10;;
24443;SDS011;13346;50.984;5.822;2024-03-22T03:39:01;18.10;;;13.17;;
24443;SDS011;13346;50.984;5.822;2024-03-22T03:41:29;19.70;;;12.80;;
24443;SDS011;13346;50.984;5.822;2024-03-22T03:43:55;21.20;;;13.60;;
24443;SDS011;13346;50.984;5.822;2024-03-22T03:46:22;20.60;;;14.27;;
24443;SDS011;13346;50.984;5.822;2024-03-22T03:48:48;18.00;;;14.77;;
24443;SDS011;13346;50.984;5.822;2024-03-22T03:51:17;20.17;;;14.80;;
24443;SDS011;13346;50.984;5.822;2024-03-22T03:53:43;17.83;;;12.37;;
24443;SDS011;13346;50.984;5.822;2024-03-22T03:56:10;21.03;;;13.47;;
24443;SDS011;13346;50.984;5.822;2024-03-22T03:58:36;19.00;;;14.57;;
24443;SDS011;13346;50.984;5.822;2024-03-22T04:01:05;14.57;;;11.90;;
24443;SDS011;13346;50.984;5.822;2024-03-22T04:03:31;16.43;;;11.73;;
24443;SDS011;13346;50.984;5.822;2024-03-22T04:05:58;21.23;;;12.57;;
24443;SDS011;13346;50.984;5.822;2024-03-22T04:08:26;20.53;;;14.57;;
24443;SDS011;13346;50.984;5.822;2024-03-22T04:10:56;12.97;;;11.63;;
24443;SDS011;13346;50.984;5.822;2024-03-22T04:13:22;16.40;;;10.10;;
24443;SDS011;13346;50.984;5.822;2024-03-22T04:15:50;18.83;;;13.80;;
24443;SDS011;13346;50.984;5.822;2024-03-22T04:18:16;15.57;;;12.97;;
24443;SDS011;13346;50.984;5.822;2024-03-22T04:20:52;23.33;;;14.47;;
24443;SDS011;13346;50.984;5.822;2024-03-22T04:23:19;18.93;;;13.77;;
24443;SDS011;13346;50.984;5.822;2024-03-22T04:25:52;15.53;;;12.63;;
24443;SDS011;13346;50.984;5.822;2024-03-22T04:28:19;16.80;;;12.13;;
24443;SDS011;13346;50.984;5.822;2024-03-22T04:30:54;20.27;;;13.07;;
24443;SDS011;13346;50.984;5.822;2024-03-22T04:33:21;15.40;;;12.67;;
24443;SDS011;13346;50.984;5.822;2024-03-22T04:35:48;13.33;;;11.63;;
24443;SDS011;13346;50.984;5.822;2024-03-22T04:38:14;15.53;;;12.20;;
24443;SDS011;13346;50.984;5.822;2024-03-22T04:40:41;17.27;;;14.03;;
24443;SDS011;13346;50.984;5.822;2024-03-22T04:43:10;13.17;;;11.77;;
24443;SDS011;13346;50.984;5.822;2024-03-22T04:45:37;15.27;;;12.50;;
24443;SDS011;13346;50.984;5.822;2024-03-22T04:48:04;14.47;;;12.53;;
24443;SDS011;13346;50.984;5.822;2024-03-22T04:50:31;11.60;;;10.47;;
24443;SDS011;13346;50.984;5.822;2024-03-22T04:52:58;11.23;;;9.47;;
24443;SDS011;13346;50.984;5.822;2024-03-22T04:55:24;11.23;;;8.63;;
24443;SDS011;13346;50.984;5.822;2024-03-22T04:57:51;17.87;;;13.83;;
24443;SDS011;13346;50.984;5.822;2024-03-22T05:00:19;17.47;;;12.83;;
24443;SDS011;13346;50.984;5.822;2024-03-22T05:02:46;18.53;;;11.27;;
24443;SDS011;13346;50.984;5.822;2024-03-22T05:05:13;16.17;;;13.23;;
24443;SDS011;13346;50.984;5.822;2024-03-22T05:07:40;11.73;;;9.10;;
24443;SDS011;13346;50.984;5.822;2024-03-22T05:10:06;17.70;;;12.90;;
24443;SDS011;13346;50.984;5.822;2024-03-22T05:12:34;19.97;;;13.20;;
24443;SDS011;13346;50.984;5.822;2024-03-22T05:15:01;17.40;;;13.03;;
24443;SDS011;13346;50.984;5.822;2024-03-22T05:17:31;15.93;;;12.37;;
24443;SDS011;13346;50.984;5.822;2024-03-22T05:19:58;12.47;;;10.77;;
24443;SDS011;13346;50.984;5.822;2024-03-22T05:22:25;16.53;;;12.63;;
24443;SDS011;13346;50.984;5.822;2024-03-22T05:24:52;15.23;;;11.50;;
24443;SDS011;13346;50.984;5.822;2024-03-22T05:27:19;24.10;;;13.47;;
24443;SDS011;13346;50.984;5.822;2024-03-22T05:29:45;13.10;;;10.00;;
24443;SDS011;13346;50.984;5.822;2024-03-22T05:32:12;17.20;;;12.17;;
24443;SDS011;13346;50.984;5.822;2024-03-22T05:34:39;19.40;;;15.03;;
24443;SDS011;13346;50.984;5.822;2024-03-22T05:37:07;18.63;;;12.97;;
24443;SDS011;13346;50.984;5.822;2024-03-22T05:39:34;15.07;;;12.67;;
24443;SDS011;13346;50.984;5.822;2024-03-22T05:42:01;19.67;;;13.30;;
24443;SDS011;13346;50.984;5.822;2024-03-22T05:44:27;18.73;;;14.30;;
24443;SDS011;13346;50.984;5.822;2024-03-22T05:46:54;16.20;;;13.97;;
24443;SDS011;13346;50.984;5.822;2024-03-22T05:49:21;17.63;;;11.47;;
24443;SDS011;13346;50.984;5.822;2024-03-22T05:51:49;18.93;;;13.40;;
24443;SDS011;13346;50.984;5.822;2024-03-22T05:54:15;17.47;;;12.03;;
24443;SDS011;13346;50.984;5.822;2024-03-22T05:56:42;22.67;;;14.33;;
24443;SDS011;13346;50.984;5.822;2024-03-22T05:59:08;21.30;;;15.03;;
24443;SDS011;13346;50.984;5.822;2024-03-22T06:01:36;19.53;;;14.17;;
24443;SDS011;13346;50.984;5.822;2024-03-22T06:04:03;12.37;;;10.57;;
24443;SDS011;13346;50.984;5.822;2024-03-22T06:06:31;22.50;;;15.43;;
24443;SDS011;13346;50.984;5.822;2024-03-22T06:08:58;17.63;;;15.20;;
24443;SDS011;13346;50.984;5.822;2024-03-22T06:11:28;14.27;;;12.23;;
24443;SDS011;13346;50.984;5.822;2024-03-22T06:13:55;19.87;;;15.63;;
24443;SDS011;13346;50.984;5.822;2024-03-22T06:16:22;18.73;;;14.60;;
24443;SDS011;13346;50.984;5.822;2024-03-22T06:18:48;15.47;;;13.83;;
24443;SDS011;13346;50.984;5.822;2024-03-22T06:21:15;22.70;;;16.87;;
24443;SDS011;13346;50.984;5.822;2024-03-22T06:23:47;20.97;;;15.37;;
24443;SDS011;13346;50.984;5.822;2024-03-22T06:26:16;23.10;;;15.40;;
24443;SDS011;13346;50.984;5.822;2024-03-22T06:28:43;21.23;;;16.00;;
24443;SDS011;13346;50.984;5.822;2024-03-22T06:31:10;21.00;;;16.13;;
24443;SDS011;13346;50.984;5.822;2024-03-22T06:33:36;23.90;;;16.43;;
24443;SDS011;13346;50.984;5.822;2024-03-22T06:36:04;20.87;;;15.57;;
24443;SDS011;13346;50.984;5.822;2024-03-22T06:38:30;21.13;;;16.03;;
24443;SDS011;13346;50.984;5.822;2024-03-22T06:40:57;20.80;;;14.87;;
24443;SDS011;13346;50.984;5.822;2024-03-22T06:43:25;18.27;;;13.67;;
24443;SDS011;13346;50.984;5.822;2024-03-22T06:45:52;21.27;;;15.90;;
24443;SDS011;13346;50.984;5.822;2024-03-22T06:48:18;21.33;;;15.03;;
24443;SDS011;13346;50.984;5.822;2024-03-22T06:50:46;18.43;;;13.70;;
24443;SDS011;13346;50.984;5.822;2024-03-22T06:53:12;30.60;;;15.33;;
24443;SDS011;13346;50.984;5.822;2024-03-22T06:55:39;22.43;;;14.30;;
24443;SDS011;13346;50.984;5.822;2024-03-22T06:58:05;13.03;;;10.70;;
24443;SDS011;13346;50.984;5.822;2024-03-22T07:00:33;15.17;;;11.97;;
24443;SDS011;13346;50.984;5.822;2024-03-22T07:03:00;19.43;;;13.80;;
24443;SDS011;13346;50.984;5.822;2024-03-22T07:05:27;22.60;;;13.13;;
24443;SDS011;13346;50.984;5.822;2024-03-22T07:07:54;16.27;;;12.03;;
24443;SDS011;13346;50.984;5.822;2024-03-22T07:10:22;20.57;;;15.33;;
24443;SDS011;13346;50.984;5.822;2024-03-22T07:12:52;21.13;;;14.57;;
24443;SDS011;13346;50.984;5.822;2024-03-22T07:15:20;17.10;;;12.57;;
24443;SDS011;13346;50.984;5.822;2024-03-22T07:17:48;20.17;;;14.70;;
24443;SDS011;13346;50.984;5.822;2024-03-22T07:20:16;20.90;;;16.17;;
24443;SDS011;13346;50.984;5.822;2024-03-22T07:22:42;19.27;;;14.97;;
24443;SDS011;13346;50.984;5.822;2024-03-22T07:25:09;25.53;;;16.97;;
24443;SDS011;13346;50.984;5.822;2024-03-22T07:27:35;20.90;;;14.60;;
24443;SDS011;13346;50.984;5.822;2024-03-22T07:30:03;18.50;;;15.37;;
24443;SDS011;13346;50.984;5.822;2024-03-22T07:32:30;19.67;;;15.43;;
24443;SDS011;13346;50.984;5.822;2024-03-22T07:34:59;16.37;;;14.20;;
24443;SDS011;13346;50.984;5.822;2024-03-22T07:37:25;20.13;;;14.73;;
24443;SDS011;13346;50.984;5.822;2024-03-22T07:39:52;21.63;;;16.73;;
24443;SDS011;13346;50.984;5.822;2024-03-22T07:42:18;22.97;;;16.30;;
24443;SDS011;13346;50.984;5.822;2024-03-22T07:44:46;18.90;;;14.17;;
24443;SDS011;13346;50.984;5.822;2024-03-22T07:47:12;20.13;;;14.38;;
24443;SDS011;13346;50.984;5.822;2024-03-22T07:49:39;20.00;;;13.90;;
24443;SDS011;13346;50.984;5.822;2024-03-22T07:52:07;16.77;;;13.20;;
24443;SDS011;13346;50.984;5.822;2024-03-22T07:54:54;17.00;;;13.05;;
24443;SDS011;13346;50.984;5.822;2024-03-22T07:57:21;20.90;;;15.10;;
24443;SDS011;13346;50.984;5.822;2024-03-22T07:59:48;12.23;;;10.87;;
24443;SDS011;13346;50.984;5.822;2024-03-22T08:02:14;18.77;;;11.93;;
24443;SDS011;13346;50.984;5.822;2024-03-22T08:04:41;16.37;;;14.53;;
24443;SDS011;13346;50.984;5.822;2024-03-22T08:07:09;14.80;;;11.43;;
24443;SDS011;13346;50.984;5.822;2024-03-22T08:09:36;20.73;;;12.87;;
24443;SDS011;13346;50.984;5.822;2024-03-22T08:12:02;14.80;;;12.75;;
24443;SDS011;13346;50.984;5.822;2024-03-22T08:14:30;15.20;;;12.83;;
24443;SDS011;13346;50.984;5.822;2024-03-22T08:16:56;17.25;;;14.02;;
24443;SDS011;13346;50.984;5.822;2024-03-22T08:19:23;14.57;;;12.05;;
24443;SDS011;13346;50.984;5.822;2024-03-22T08:21:49;12.93;;;10.80;;
24443;SDS011;13346;50.984;5.822;2024-03-22T08:24:18;17.27;;;12.60;;
24443;SDS011;13346;50.984;5.822;2024-03-22T08:26:44;17.42;;;13.20;;
24443;SDS011;13346;50.984;5.822;2024-03-22T08:29:12;17.27;;;12.45;;
24443;SDS011;13346;50.984;5.822;2024-03-22T08:31:39;13.93;;;11.80;;
24443;SDS011;13346;50.984;5.822;2024-03-22T08:34:07;14.82;;;11.90;;
24443;SDS011;13346;50.984;5.822;2024-03-22T08:36:33;17.38;;;12.23;;
24443;SDS011;13346;50.984;5.822;2024-03-22T08:39:01;10.70;;;9.35;;
24443;SDS011;13346;50.984;5.822;2024-03-22T08:41:29;15.33;;;11.87;;
24443;SDS011;13346;50.984;5.822;2024-03-22T08:43:56;12.88;;;11.13;;
24443;SDS011;13346;50.984;5.822;2024-03-22T08:46:23;9.32;;;8.07;;
24443;SDS011;13346;50.984;5.822;2024-03-22T08:48:52;12.55;;;11.35;;
24443;SDS011;13346;50.984;5.822;2024-03-22T08:51:19;19.23;;;11.93;;
24443;SDS011;13346;50.984;5.822;2024-03-22T08:53:47;16.65;;;11.27;;
24443;SDS011;13346;50.984;5.822;2024-03-22T08:56:13;15.45;;;11.52;;
24443;SDS011;13346;50.984;5.822;2024-03-22T08:58:41;12.60;;;11.43;;
24443;SDS011;13346;50.984;5.822;2024-03-22T09:01:08;16.35;;;10.80;;
24443;SDS011;13346;50.984;5.822;2024-03-22T09:03:36;15.73;;;10.73;;
24443;SDS011;13346;50.984;5.822;2024-03-22T09:06:02;16.40;;;11.10;;
24443;SDS011;13346;50.984;5.822;2024-03-22T09:08:30;15.27;;;11.63;;
24443;SDS011;13346;50.984;5.822;2024-03-22T09:10:56;13.68;;;11.05;;
24443;SDS011;13346;50.984;5.822;2024-03-22T09:13:24;12.57;;;10.52;;
24443;SDS011;13346;50.984;5.822;2024-03-22T09:15:57;11.85;;;10.65;;
24443;SDS011;13346;50.984;5.822;2024-03-22T09:18:24;19.80;;;11.82;;
24443;SDS011;13346;50.984;5.822;2024-03-22T09:20:51;13.82;;;10.27;;
24443;SDS011;13346;50.984;5.822;2024-03-22T09:23:19;12.73;;;11.45;;
24443;SDS011;13346;50.984;5.822;2024-03-22T09:25:45;12.98;;;9.95;;
24443;SDS011;13346;50.984;5.822;2024-03-22T09:28:13;13.52;;;11.60;;
24443;SDS011;13346;50.984;5.822;2024-03-22T09:30:39;11.98;;;10.70;;
24443;SDS011;13346;50.984;5.822;2024-03-22T09:33:09;11.88;;;10.65;;
24443;SDS011;13346;50.984;5.822;2024-03-22T09:35:36;13.95;;;10.55;;
24443;SDS011;13346;50.984;5.822;2024-03-22T09:38:03;15.15;;;10.70;;
24443;SDS011;13346;50.984;5.822;2024-03-22T09:40:29;11.35;;;10.07;;
24443;SDS011;13346;50.984;5.822;2024-03-22T09:42:58;13.85;;;11.10;;
24443;SDS011;13346;50.984;5.822;2024-03-22T09:45:28;13.93;;;10.75;;
24443;SDS011;13346;50.984;5.822;2024-03-22T09:47:56;12.23;;;10.75;;
24443;SDS011;13346;50.984;5.822;2024-03-22T09:50:24;12.32;;;10.32;;
24443;SDS011;13346;50.984;5.822;2024-03-22T09:52:52;11.80;;;10.20;;
24443;SDS011;13346;50.984;5.822;2024-03-22T09:55:19;13.05;;;11.35;;
24443;SDS011;13346;50.984;5.822;2024-03-22T09:57:50;13.93;;;10.57;;
24443;SDS011;13346;50.984;5.822;2024-03-22T10:00:19;13.23;;;8.10;;
24443;SDS011;13346;50.984;5.822;2024-03-22T10:02:47;13.05;;;10.65;;
24443;SDS011;13346;50.984;5.822;2024-03-22T10:05:15;13.70;;;10.48;;
24443;SDS011;13346;50.984;5.822;2024-03-22T10:07:45;10.75;;;9.13;;
24443;SDS011;13346;50.984;5.822;2024-03-22T10:10:11;13.60;;;11.02;;
24443;SDS011;13346;50.984;5.822;2024-03-22T10:12:39;10.63;;;9.30;;
24443;SDS011;13346;50.984;5.822;2024-03-22T10:15:05;11.52;;;10.02;;
24443;SDS011;13346;50.984;5.822;2024-03-22T10:17:34;13.27;;;10.32;;
24443;SDS011;13346;50.984;5.822;2024-03-22T10:20:01;11.15;;;9.65;;
24443;SDS011;13346;50.984;5.822;2024-03-22T10:22:28;12.20;;;10.18;;
24443;SDS011;13346;50.984;5.822;2024-03-22T10:24:56;10.32;;;9.23;;
24443;SDS011;13346;50.984;5.822;2024-03-22T10:27:26;11.73;;;10.25;;
24443;SDS011;13346;50.984;5.822;2024-03-22T10:29:54;10.85;;;8.88;;
24443;SDS011;13346;50.984;5.822;2024-03-22T10:32:22;11.32;;;10.27;;
24443;SDS011;13346;50.984;5.822;2024-03-22T10:34:49;10.00;;;9.00;;
24443;SDS011;13346;50.984;5.822;2024-03-22T10:37:17;10.55;;;9.52;;
24443;SDS011;13346;50.984;5.822;2024-03-22T10:39:43;10.05;;;8.63;;
24443;SDS011;13346;50.984;5.822;2024-03-22T10:42:13;9.05;;;8.15;;
24443;SDS011;13346;50.984;5.822;2024-03-22T10:44:41;8.18;;;7.47;;
24443;SDS011;13346;50.984;5.822;2024-03-22T10:47:09;8.65;;;7.43;;
24443;SDS011;13346;50.984;5.822;2024-03-22T10:49:37;9.27;;;8.40;;
24443;SDS011;13346;50.984;5.822;2024-03-22T10:52:04;9.30;;;8.40;;
24443;SDS011;13346;50.984;5.822;2024-03-22T10:54:34;10.02;;;7.68;;
24443;SDS011;13346;50.984;5.822;2024-03-22T10:57:06;9.90;;;8.38;;
24443;SDS011;13346;50.984;5.822;2024-03-22T10:59:38;8.98;;;8.10;;
24443;SDS011;13346;50.984;5.822;2024-03-22T11:02:10;9.93;;;8.93;;
24443;SDS011;13346;50.984;5.822;2024-03-22T11:04:36;11.32;;;8.40;;
24443;SDS011;13346;50.984;5.822;2024-03-22T11:07:03;7.03;;;6.07;;
24443;SDS011;13346;50.984;5.822;2024-03-22T11:09:30;12.20;;;7.38;;
24443;SDS011;13346;50.984;5.822;2024-03-22T11:11:57;7.25;;;6.65;;
24443;SDS011;13346;50.984;5.822;2024-03-22T11:14:25;7.35;;;6.70;;
24443;SDS011;13346;50.984;5.822;2024-03-22T11:16:53;9.85;;;6.18;;
24443;SDS011;13346;50.984;5.822;2024-03-22T11:19:19;8.02;;;7.28;;
24443;SDS011;13346;50.984;5.822;2024-03-22T11:21:46;7.55;;;6.70;;
24443;SDS011;13346;50.984;5.822;2024-03-22T11:24:13;7.53;;;6.82;;
24443;SDS011;13346;50.984;5.822;2024-03-22T11:26:40;7.00;;;6.07;;
24443;SDS011;13346;50.984;5.822;2024-03-22T11:29:06;9.10;;;7.05;;
24443;SDS011;13346;50.984;5.822;2024-03-22T11:31:33;8.05;;;7.35;;
24443;SDS011;13346;50.984;5.822;2024-03-22T11:34:02;11.38;;;7.55;;
24443;SDS011;13346;50.984;5.822;2024-03-22T11:36:29;7.70;;;6.38;;
24443;SDS011;13346;50.984;5.822;2024-03-22T11:38:55;7.28;;;6.65;;
24443;SDS011;13346;50.984;5.822;2024-03-22T11:41:23;10.40;;;7.57;;
24443;SDS011;13346;50.984;5.822;2024-03-22T11:43:53;8.07;;;7.28;;
24443;SDS011;13346;50.984;5.822;2024-03-22T11:46:23;7.20;;;6.50;;
24443;SDS011;13346;50.984;5.822;2024-03-22T11:48:53;7.13;;;6.25;;
24443;SDS011;13346;50.984;5.822;2024-03-22T11:51:22;7.05;;;6.45;;
24443;SDS011;13346;50.984;5.822;2024-03-22T11:53:48;7.50;;;6.75;;
24443;SDS011;13346;50.984;5.822;2024-03-22T11:56:19;7.93;;;6.88;;
24443;SDS011;13346;50.984;5.822;2024-03-22T11:58:46;7.65;;;6.95;;
24443;SDS011;13346;50.984;5.822;2024-03-22T12:01:14;8.80;;;6.30;;
24443;SDS011;13346;50.984;5.822;2024-03-22T12:03:43;7.30;;;6.70;;
24443;SDS011;13346;50.984;5.822;2024-03-22T12:06:11;7.00;;;6.38;;
24443;SDS011;13346;50.984;5.822;2024-03-22T12:08:39;7.60;;;6.90;;
24443;SDS011;13346;50.984;5.822;2024-03-22T12:11:06;8.02;;;6.93;;
24443;SDS011;13346;50.984;5.822;2024-03-22T12:13:33;8.02;;;6.57;;
24443;SDS011;13346;50.984;5.822;2024-03-22T12:16:01;7.03;;;6.32;;
24443;SDS011;13346;50.984;5.822;2024-03-22T12:18:28;9.93;;;7.03;;
24443;SDS011;13346;50.984;5.822;2024-03-22T12:20:55;8.18;;;7.30;;
24443;SDS011;13346;50.984;5.822;2024-03-22T12:23:21;7.55;;;6.80;;
24443;SDS011;13346;50.984;5.822;2024-03-22T12:25:51;8.82;;;7.93;;
24443;SDS011;13346;50.984;5.822;2024-03-22T12:28:17;8.73;;;7.43;;
24443;SDS011;13346;50.984;5.822;2024-03-22T12:30:45;8.90;;;8.00;;
24443;SDS011;13346;50.984;5.822;2024-03-22T12:33:11;10.48;;;8.30;;
24443;SDS011;13346;50.984;5.822;2024-03-22T12:35:38;8.50;;;7.70;;
24443;SDS011;13346;50.984;5.822;2024-03-22T12:38:05;7.78;;;7.18;;
24443;SDS011;13346;50.984;5.822;2024-03-22T12:40:34;8.30;;;7.50;;
24443;SDS011;13346;50.984;5.822;2024-03-22T12:43:01;8.85;;;7.85;;
24443;SDS011;13346;50.984;5.822;2024-03-22T12:45:29;8.82;;;7.93;;
24443;SDS011;13346;50.984;5.822;2024-03-22T12:47:55;7.93;;;7.28;;
24443;SDS011;13346;50.984;5.822;2024-03-22T12:50:22;9.55;;;8.00;;
24443;SDS011;13346;50.984;5.822;2024-03-22T12:52:49;8.48;;;7.75;;
24443;SDS011;13346;50.984;5.822;2024-03-22T12:55:16;8.88;;;7.30;;
24443;SDS011;13346;50.984;5.822;2024-03-22T12:57:42;9.57;;;8.68;;
24443;SDS011;13346;50.984;5.822;2024-03-22T13:00:11;10.80;;;7.68;;
24443;SDS011;13346;50.984;5.822;2024-03-22T13:02:39;7.05;;;6.45;;
24443;SDS011;13346;50.984;5.822;2024-03-22T13:05:06;7.68;;;6.97;;
24443;SDS011;13346;50.984;5.822;2024-03-22T13:07:33;8.85;;;8.00;;
24443;SDS011;13346;50.984;5.822;2024-03-22T13:10:00;8.40;;;7.25;;
24443;SDS011;13346;50.984;5.822;2024-03-22T13:12:27;11.07;;;7.50;;
24443;SDS011;13346;50.984;5.822;2024-03-22T13:14:56;12.32;;;8.75;;
24443;SDS011;13346;50.984;5.822;2024-03-22T13:17:23;7.43;;;6.78;;
24443;SDS011;13346;50.984;5.822;2024-03-22T13:19:51;10.80;;;8.32;;
24443;SDS011;13346;50.984;5.822;2024-03-22T13:22:17;9.75;;;8.95;;
24443;SDS011;13346;50.984;5.822;2024-03-22T13:24:44;10.32;;;8.85;;
24443;SDS011;13346;50.984;5.822;2024-03-22T13:27:11;7.72;;;6.97;;
24443;SDS011;13346;50.984;5.822;2024-03-22T13:29:38;10.10;;;9.13;;
24443;SDS011;13346;50.984;5.822;2024-03-22T13:32:05;10.05;;;8.98;;
24443;SDS011;13346;50.984;5.822;2024-03-22T13:34:35;9.18;;;8.35;;
24443;SDS011;13346;50.984;5.822;2024-03-22T13:37:01;9.63;;;8.75;;
24443;SDS011;13346;50.984;5.822;2024-03-22T13:39:29;10.45;;;8.63;;
24443;SDS011;13346;50.984;5.822;2024-03-22T13:41:56;10.85;;;8.80;;
24443;SDS011;13346;50.984;5.822;2024-03-22T13:44:22;10.25;;;9.00;;
24443;SDS011;13346;50.984;5.822;2024-03-22T13:46:50;11.63;;;9.13;;
24443;SDS011;13346;50.984;5.822;2024-03-22T13:49:17;10.52;;;9.40;;
24443;SDS011;13346;50.984;5.822;2024-03-22T13:51:47;12.25;;;9.40;;
24443;SDS011;13346;50.984;5.822;2024-03-22T13:54:13;10.45;;;9.45;;
24443;SDS011;13346;50.984;5.822;2024-03-22T13:56:41;10.60;;;9.60;;
24443;SDS011;13346;50.984;5.822;2024-03-22T13:59:08;12.07;;;9.45;;
24443;SDS011;13346;50.984;5.822;2024-03-22T14:01:35;12.35;;;9.68;;
24443;SDS011;13346;50.984;5.822;2024-03-22T14:04:01;14.35;;;9.10;;
24443;SDS011;13346;50.984;5.822;2024-03-22T14:06:29;9.80;;;8.80;;
24443;SDS011;13346;50.984;5.822;2024-03-22T14:08:58;10.10;;;9.10;;
24443;SDS011;13346;50.984;5.822;2024-03-22T14:11:26;11.55;;;10.15;;
24443;SDS011;13346;50.984;5.822;2024-03-22T14:13:55;11.20;;;10.10;;
24443;SDS011;13346;50.984;5.822;2024-03-22T14:16:22;10.18;;;9.18;;
24443;SDS011;13346;50.984;5.822;2024-03-22T14:18:49;10.57;;;9.57;;
24443;SDS011;13346;50.984;5.822;2024-03-22T14:21:16;10.20;;;9.05;;
24443;SDS011;13346;50.984;5.822;2024-03-22T14:23:44;11.75;;;9.80;;
24443;SDS011;13346;50.984;5.822;2024-03-22T14:26:12;14.83;;;10.13;;
24443;SDS011;13346;50.984;5.822;2024-03-22T14:28:40;14.65;;;8.95;;